createdAt,value
2023-02-17T00:01:19.984Z,34.90
2023-02-17T00:03:49.128Z,33.73
2023-02-17T00:06:19.242Z,36.60
2023-02-17T00:08:48.060Z,36.97
2023-02-17T00:11:16.819Z,34.53
2023-02-17T00:13:46.585Z,36.07
2023-02-17T00:16:18.749Z,35.27
2023-02-17T00:18:46.878Z,36.73
2023-02-17T00:21:19.675Z,35.73
2023-02-17T00:23:48.692Z,35.73
2023-02-17T00:26:17.931Z,35.23
2023-02-17T00:28:47.996Z,36.13
2023-02-17T00:31:17.754Z,37.57
2023-02-17T00:33:46.214Z,35.23
2023-02-17T00:36:17.786Z,36.07
2023-02-17T00:38:46.676Z,35.10
2023-02-17T00:41:14.685Z,34.67
2023-02-17T00:43:42.612Z,35.43
2023-02-17T00:46:12.140Z,36.10
2023-02-17T00:48:40.199Z,34.13
2023-02-17T00:51:08.213Z,35.50
2023-02-17T00:53:36.281Z,35.50
2023-02-17T00:56:05.421Z,33.53
2023-02-17T00:58:33.666Z,33.43
2023-02-17T01:01:02.176Z,35.17
2023-02-17T01:03:31.494Z,34.23
2023-02-17T01:05:59.990Z,34.00
2023-02-17T01:08:28.006Z,34.70
2023-02-17T01:10:56.004Z,34.37
2023-02-17T01:13:23.976Z,35.00
2023-02-17T01:15:53.841Z,37.23
2023-02-17T01:18:23.565Z,35.63
2023-02-17T01:20:53.630Z,35.70
2023-02-17T01:23:21.759Z,35.67
2023-02-17T01:25:50.765Z,34.70
2023-02-17T01:28:21.097Z,36.70
2023-02-17T01:30:49.193Z,35.43
2023-02-17T01:33:17.225Z,34.97
2023-02-17T01:35:45.229Z,36.13
2023-02-17T01:38:14.527Z,36.17
2023-02-17T01:40:48.313Z,35.73
2023-02-17T01:43:18.942Z,35.60
2023-02-17T01:45:52.142Z,34.90
2023-02-17T01:48:22.445Z,35.90
2023-02-17T01:50:54.594Z,34.47
2023-02-17T01:53:29.476Z,35.60
2023-02-17T01:55:57.989Z,34.80
2023-02-17T01:58:27.439Z,35.67
2023-02-17T02:00:57.780Z,33.83
2023-02-17T02:03:26.970Z,36.17
2023-02-17T02:05:55.427Z,35.80
2023-02-17T02:08:25.019Z,35.53
2023-02-17T02:10:52.974Z,35.97
2023-02-17T02:13:20.949Z,35.50
2023-02-17T02:15:56.606Z,35.03
2023-02-17T02:18:45.217Z,34.53
2023-02-17T02:21:49.404Z,37.30
2023-02-17T02:24:33.989Z,33.67
2023-02-17T02:27:36.773Z,34.80
2023-02-17T02:30:27.968Z,34.33
2023-02-17T02:33:05.771Z,34.77
2023-02-17T02:35:44.129Z,32.90
2023-02-17T02:38:15.718Z,32.50
2023-02-17T02:40:48.301Z,33.90
2023-02-17T02:43:17.105Z,33.43
2023-02-17T02:45:45.181Z,33.80
2023-02-17T02:48:14.543Z,32.47
2023-02-17T02:51:00.960Z,32.97
2023-02-17T02:53:59.933Z,32.10
2023-02-17T02:56:42.080Z,31.77
2023-02-17T02:59:24.610Z,31.03
2023-02-17T03:02:03.469Z,29.67
2023-02-17T03:04:37.823Z,31.33
2023-02-17T03:07:12.453Z,29.77
2023-02-17T03:09:40.869Z,30.87
2023-02-17T03:12:09.030Z,30.70
2023-02-17T03:14:39.342Z,30.13
2023-02-17T03:17:07.300Z,31.17
2023-02-17T03:19:36.933Z,29.97
2023-02-17T03:22:11.671Z,30.13
2023-02-17T03:24:39.706Z,30.87
2023-02-17T03:27:07.665Z,30.10
2023-02-17T03:29:35.684Z,30.33
2023-02-17T03:32:03.869Z,30.77
2023-02-17T03:34:32.049Z,30.23
2023-02-17T03:37:01.694Z,29.80
2023-02-17T03:39:30.168Z,30.77
2023-02-17T03:41:58.181Z,30.87
2023-02-17T03:44:26.153Z,29.63
2023-02-17T03:46:54.156Z,28.73
2023-02-17T03:49:22.345Z,30.97
2023-02-17T03:51:50.353Z,29.50
2023-02-17T03:54:19.648Z,31.80
2023-02-17T03:56:47.611Z,29.97
2023-02-17T03:59:15.585Z,31.17
2023-02-17T04:01:43.682Z,31.67
2023-02-17T04:04:11.700Z,29.53
2023-02-17T04:06:39.915Z,30.77
2023-02-17T04:09:07.933Z,30.23
2023-02-17T04:11:37.301Z,29.73
2023-02-17T04:14:05.393Z,29.83
2023-02-17T04:16:33.583Z,28.77
2023-02-17T04:19:01.646Z,30.00
2023-02-17T04:21:29.661Z,28.73
2023-02-17T04:23:57.729Z,29.03
2023-02-17T04:26:25.729Z,30.10
2023-02-17T04:28:55.294Z,31.03
2023-02-17T04:31:24.043Z,30.13
2023-02-17T04:33:52.036Z,30.07
2023-02-17T04:36:20.048Z,29.00
2023-02-17T04:38:48.041Z,28.50
2023-02-17T04:41:16.424Z,29.17
2023-02-17T04:43:44.471Z,30.20
2023-02-17T04:46:13.826Z,29.17
2023-02-17T04:48:41.844Z,29.20
2023-02-17T04:51:09.786Z,28.03
2023-02-17T04:53:37.746Z,28.17
2023-02-17T04:56:06.792Z,29.13
2023-02-17T04:58:34.989Z,29.87
2023-02-17T05:01:02.998Z,30.63
2023-02-17T05:03:32.354Z,30.07
2023-02-17T05:06:00.280Z,29.63
2023-02-17T05:08:28.273Z,28.67
2023-02-17T05:10:56.235Z,29.00
2023-02-17T05:13:24.247Z,28.80
2023-02-17T05:15:52.284Z,29.90
2023-02-17T05:18:20.325Z,30.57
2023-02-17T05:20:49.635Z,31.00
2023-02-17T05:23:17.597Z,29.40
2023-02-17T05:25:45.618Z,30.23
2023-02-17T05:28:13.590Z,29.43
2023-02-17T05:30:41.776Z,28.37
2023-02-17T05:33:09.760Z,29.90
2023-02-17T05:35:37.799Z,28.63
2023-02-17T05:38:07.169Z,28.93
2023-02-17T05:40:35.351Z,30.47
2023-02-17T05:43:03.339Z,29.33
2023-02-17T05:45:31.335Z,30.63
2023-02-17T05:47:59.301Z,31.00
2023-02-17T05:50:27.580Z,30.90
2023-02-17T05:52:55.538Z,29.27
2023-02-17T05:55:24.849Z,30.00
2023-02-17T05:57:52.828Z,29.73
2023-02-17T06:00:21.116Z,29.43
2023-02-17T06:02:49.295Z,31.07
2023-02-17T06:05:17.615Z,29.17
2023-02-17T06:07:45.596Z,30.03
2023-02-17T06:10:13.602Z,31.13
2023-02-17T06:12:42.943Z,28.90
2023-02-17T06:15:11.265Z,31.80
2023-02-17T06:17:39.284Z,28.73
2023-02-17T06:20:08.905Z,29.67
2023-02-17T06:22:36.935Z,30.20
2023-02-17T06:25:05.230Z,30.43
2023-02-17T06:27:33.282Z,31.43
2023-02-17T06:30:02.785Z,28.20
2023-02-17T06:32:30.841Z,30.23
2023-02-17T06:34:58.830Z,29.13
2023-02-17T06:37:27.016Z,31.13
2023-02-17T06:39:55.126Z,30.20
2023-02-17T06:42:23.172Z,29.77
2023-02-17T06:44:51.144Z,28.77
2023-02-17T06:47:20.434Z,29.63
2023-02-17T06:49:48.681Z,28.73
2023-02-17T06:52:17.112Z,28.97
2023-02-17T06:54:47.242Z,28.37
2023-02-17T06:57:15.271Z,28.63
2023-02-17T06:59:43.280Z,28.33
2023-02-17T07:02:13.038Z,29.00
2023-02-17T07:04:43.659Z,28.53
2023-02-17T07:07:15.374Z,29.57
2023-02-17T07:09:43.501Z,29.00
2023-02-17T07:12:11.864Z,29.10
2023-02-17T07:14:40.503Z,29.37
2023-02-17T07:17:08.572Z,27.67
2023-02-17T07:19:36.859Z,27.60
2023-02-17T07:22:06.293Z,29.30
2023-02-17T07:24:35.098Z,27.07
2023-02-17T07:27:03.220Z,27.63
2023-02-17T07:29:31.299Z,26.63
2023-02-17T07:31:59.335Z,27.67
2023-02-17T07:34:27.491Z,26.30
2023-02-17T07:36:55.673Z,28.00
2023-02-17T07:39:25.348Z,26.90
2023-02-17T07:41:53.488Z,26.70
2023-02-17T07:44:21.749Z,26.30
2023-02-17T07:46:49.904Z,26.10
2023-02-17T07:49:18.424Z,24.93
2023-02-17T07:51:46.566Z,25.10
2023-02-17T07:54:14.845Z,25.00
2023-02-17T07:56:44.257Z,23.83
2023-02-17T07:59:13.462Z,23.87
2023-02-17T08:01:41.675Z,23.30
2023-02-17T08:04:09.936Z,23.40
2023-02-17T08:06:40.045Z,23.07
2023-02-17T08:09:25.501Z,22.43
2023-02-17T08:12:12.223Z,22.83
2023-02-17T08:14:40.217Z,22.23
2023-02-17T08:17:08.879Z,22.50
2023-02-17T08:19:47.646Z,24.10
2023-02-17T08:22:16.952Z,25.10
2023-02-17T08:24:45.299Z,22.90
2023-02-17T08:27:15.402Z,23.17
2023-02-17T08:29:44.027Z,22.90
2023-02-17T08:32:12.486Z,23.63
2023-02-17T08:34:40.579Z,23.43
2023-02-17T08:37:09.571Z,22.13
2023-02-17T08:39:38.472Z,24.07
2023-02-17T08:42:07.119Z,22.10
2023-02-17T08:44:37.737Z,22.87
2023-02-17T08:47:06.839Z,23.53
2023-02-17T08:49:35.900Z,22.67
2023-02-17T08:52:04.786Z,22.77
2023-02-17T08:54:32.961Z,22.90
2023-02-17T08:57:01.311Z,23.53
2023-02-17T08:59:29.715Z,22.27
2023-02-17T09:01:59.661Z,22.37
2023-02-17T09:04:27.706Z,23.77
2023-02-17T09:06:57.315Z,22.00
2023-02-17T09:09:27.816Z,21.83
2023-02-17T09:11:58.171Z,22.23
2023-02-17T09:14:26.823Z,23.50
2023-02-17T09:16:56.126Z,21.30
2023-02-17T09:19:26.100Z,24.20
2023-02-17T09:21:54.528Z,22.07
2023-02-17T09:24:22.524Z,23.00
2023-02-17T09:26:50.553Z,22.37
2023-02-17T09:29:18.665Z,22.97
2023-02-17T09:31:46.795Z,22.37
2023-02-17T09:34:15.879Z,22.00
2023-02-17T09:36:45.821Z,21.90
2023-02-17T09:39:15.157Z,21.00
2023-02-17T09:41:47.264Z,21.50
2023-02-17T09:44:22.228Z,21.50
2023-02-17T09:47:02.176Z,20.20
2023-02-17T09:49:37.720Z,20.90
2023-02-17T09:52:15.290Z,20.13
2023-02-17T09:54:50.896Z,21.07
2023-02-17T09:57:21.744Z,21.23
2023-02-17T09:59:55.757Z,21.33
2023-02-17T10:02:30.865Z,20.50
2023-02-17T10:05:04.374Z,22.00
2023-02-17T10:07:41.101Z,20.37
2023-02-17T10:10:12.681Z,19.60
2023-02-17T10:12:46.524Z,20.80
2023-02-17T10:15:19.681Z,21.47
2023-02-17T10:17:53.999Z,21.00
2023-02-17T10:20:25.283Z,20.87
2023-02-17T10:23:01.167Z,21.40
2023-02-17T10:25:57.035Z,21.73
2023-02-17T10:28:39.179Z,23.47
2023-02-17T10:31:13.962Z,21.87
2023-02-17T10:33:50.452Z,20.17
2023-02-17T10:36:28.351Z,20.10
2023-02-17T10:39:04.531Z,20.27
2023-02-17T10:41:37.243Z,20.73
2023-02-17T10:44:12.544Z,20.23
2023-02-17T10:46:42.846Z,20.03
2023-02-17T10:49:17.751Z,20.13
2023-02-17T10:51:46.021Z,18.60
2023-02-17T10:54:22.740Z,17.87
2023-02-17T10:56:56.021Z,18.27
2023-02-17T10:59:30.284Z,18.83
2023-02-17T11:02:01.905Z,19.07
2023-02-17T11:04:41.479Z,20.47
2023-02-17T11:07:14.033Z,18.90
2023-02-17T11:09:50.497Z,18.77
2023-02-17T11:12:23.887Z,19.03
2023-02-17T11:14:54.618Z,18.83
2023-02-17T11:17:29.354Z,18.77
2023-02-17T11:20:00.746Z,18.50
2023-02-17T11:22:34.145Z,18.67
2023-02-17T11:25:08.217Z,19.77
2023-02-17T11:27:36.515Z,20.13
2023-02-17T11:30:18.774Z,19.27
2023-02-17T11:32:47.989Z,19.13
2023-02-17T11:35:24.685Z,19.63
2023-02-17T11:37:53.135Z,19.37
2023-02-17T11:40:27.717Z,18.30
2023-02-17T11:43:01.082Z,19.23
2023-02-17T11:45:36.119Z,18.20
2023-02-17T11:48:18.735Z,18.47
2023-02-17T11:50:53.669Z,18.00
2023-02-17T11:53:27.482Z,18.83
2023-02-17T11:56:12.917Z,17.80
2023-02-17T11:59:00.179Z,18.50
2023-02-17T12:01:51.289Z,18.33
2023-02-17T12:04:27.377Z,18.80
2023-02-17T12:07:20.492Z,18.97
2023-02-17T12:09:58.377Z,19.13
2023-02-17T12:12:37.862Z,19.50
2023-02-17T12:15:25.927Z,19.60
2023-02-17T12:18:05.854Z,19.17
2023-02-17T12:20:42.778Z,20.03
2023-02-17T12:23:26.067Z,19.83
2023-02-17T12:26:00.993Z,19.53
2023-02-17T12:28:50.119Z,19.47
2023-02-17T12:31:33.672Z,18.23
2023-02-17T12:34:10.981Z,17.70
2023-02-17T12:36:41.244Z,18.97
2023-02-17T12:39:16.946Z,18.60
2023-02-17T12:41:49.411Z,19.30
2023-02-17T12:44:23.551Z,19.13
2023-02-17T12:46:55.009Z,19.50
2023-02-17T12:49:28.351Z,18.07
2023-02-17T12:52:02.434Z,18.97
2023-02-17T12:54:36.892Z,18.33
2023-02-17T12:57:15.420Z,17.60
2023-02-17T12:59:46.229Z,19.37
2023-02-17T13:02:16.538Z,18.57
2023-02-17T13:04:47.075Z,19.07
2023-02-17T13:07:25.491Z,18.43
2023-02-17T13:09:56.942Z,18.93
2023-02-17T13:12:41.820Z,17.53
2023-02-17T13:15:37.604Z,18.13
2023-02-17T13:18:08.067Z,18.57
2023-02-17T13:20:45.910Z,19.47
2023-02-17T13:23:16.024Z,18.67
2023-02-17T13:25:44.362Z,18.40
2023-02-17T13:28:32.493Z,17.67
2023-02-17T13:31:11.660Z,18.23
2023-02-17T13:33:44.326Z,19.37
2023-02-17T13:36:31.921Z,18.13
2023-02-17T13:39:03.044Z,17.93
2023-02-17T13:41:35.934Z,17.00
2023-02-17T13:44:29.152Z,18.13
2023-02-17T13:47:02.344Z,18.27
2023-02-17T13:49:34.018Z,19.17
2023-02-17T13:52:10.918Z,18.70
2023-02-17T13:54:39.184Z,17.50
2023-02-17T13:57:07.345Z,17.50
2023-02-17T13:59:38.127Z,16.63
2023-02-17T14:02:35.030Z,16.47
2023-02-17T14:05:17.023Z,16.10
2023-02-17T14:07:47.506Z,15.57
2023-02-17T14:10:24.759Z,15.10
2023-02-17T14:12:53.602Z,15.43
2023-02-17T14:15:23.685Z,14.83
2023-02-17T14:17:53.193Z,16.50
2023-02-17T14:20:30.014Z,14.60
2023-02-17T14:23:04.798Z,15.27
2023-02-17T14:25:35.730Z,14.90
2023-02-17T14:28:04.289Z,15.10
2023-02-17T14:30:34.904Z,14.97
2023-02-17T14:33:06.273Z,14.40
2023-02-17T14:35:35.567Z,15.17
2023-02-17T14:38:19.901Z,14.93
2023-02-17T14:40:47.906Z,15.57
2023-02-17T14:43:15.911Z,15.47
2023-02-17T14:45:43.894Z,16.47
2023-02-17T14:48:13.182Z,15.50
2023-02-17T14:50:44.236Z,16.23
2023-02-17T14:53:16.700Z,16.30
2023-02-17T14:55:49.398Z,15.33
2023-02-17T14:58:23.518Z,16.33
2023-02-17T15:00:52.438Z,16.90
2023-02-17T15:03:24.367Z,16.70
2023-02-17T15:05:53.320Z,17.40
2023-02-17T15:08:25.797Z,16.07
2023-02-17T15:10:53.900Z,16.47
2023-02-17T15:13:23.282Z,17.83
2023-02-17T15:15:51.311Z,16.40
2023-02-17T15:18:21.985Z,15.90
2023-02-17T15:20:51.376Z,16.93
2023-02-17T15:23:21.140Z,17.53
2023-02-17T15:25:49.719Z,16.27
2023-02-17T15:28:19.778Z,18.27
2023-02-17T15:30:51.548Z,17.40
2023-02-17T15:33:22.293Z,17.60
2023-02-17T15:35:54.499Z,18.00
2023-02-17T15:38:24.030Z,17.80
2023-02-17T15:40:52.433Z,15.80
2023-02-17T15:43:23.215Z,16.30
2023-02-17T15:45:51.327Z,15.87
2023-02-17T15:48:25.278Z,16.93
2023-02-17T15:50:53.868Z,14.83
2023-02-17T15:53:21.937Z,15.40
2023-02-17T15:55:50.265Z,14.67
2023-02-17T15:58:22.068Z,15.30
2023-02-17T16:00:51.249Z,15.17
2023-02-17T16:03:21.009Z,15.57
2023-02-17T16:05:49.009Z,15.63
2023-02-17T16:08:17.024Z,15.60
2023-02-17T16:10:46.715Z,14.97
2023-02-17T16:13:19.597Z,15.07
2023-02-17T16:15:48.815Z,15.43
2023-02-17T16:18:22.886Z,14.97
2023-02-17T16:20:51.573Z,16.07
2023-02-17T16:23:19.570Z,15.60
2023-02-17T16:25:49.689Z,15.10
2023-02-17T16:28:20.463Z,15.33
2023-02-17T16:30:49.712Z,15.30
2023-02-17T16:33:18.920Z,14.43
2023-02-17T16:35:50.891Z,14.17
2023-02-17T16:38:23.011Z,13.87
2023-02-17T16:40:54.840Z,14.30
2023-02-17T16:43:25.377Z,14.47
2023-02-17T16:45:56.520Z,14.33
2023-02-17T16:48:26.155Z,14.17
2023-02-17T16:50:55.688Z,13.73
2023-02-17T16:53:23.692Z,14.17
2023-02-17T16:55:53.607Z,13.97
2023-02-17T16:58:23.786Z,13.43
2023-02-17T17:00:53.635Z,13.40
2023-02-17T17:03:23.147Z,12.50
2023-02-17T17:05:52.300Z,12.87
2023-02-17T17:08:22.274Z,12.97
2023-02-17T17:10:50.754Z,12.47
2023-02-17T17:13:18.747Z,12.50
2023-02-17T17:15:47.505Z,13.17
2023-02-17T17:18:20.928Z,13.80
2023-02-17T17:20:49.426Z,14.43
2023-02-17T17:23:18.831Z,14.60
2023-02-17T17:25:48.802Z,13.00
2023-02-17T17:28:18.654Z,13.10
2023-02-17T17:30:47.129Z,13.23
2023-02-17T17:33:15.335Z,12.97
2023-02-17T17:35:43.386Z,12.93
2023-02-17T17:38:15.381Z,13.83
2023-02-17T17:40:49.208Z,12.90
2023-02-17T17:43:20.230Z,12.90
2023-02-17T17:45:48.550Z,13.00
2023-02-17T17:48:17.885Z,13.43
2023-02-17T17:50:46.433Z,12.70
2023-02-17T17:53:14.403Z,12.23
2023-02-17T17:55:42.419Z,12.93
2023-02-17T17:58:10.480Z,13.27
2023-02-17T18:00:39.821Z,12.20
2023-02-17T18:03:07.779Z,13.40
2023-02-17T18:05:36.702Z,13.00
2023-02-17T18:08:04.969Z,12.47
2023-02-17T18:10:33.393Z,12.30
2023-02-17T18:13:01.394Z,12.70
2023-02-17T18:15:29.634Z,13.30
2023-02-17T18:17:59.078Z,12.77
2023-02-17T18:20:27.344Z,13.27
2023-02-17T18:22:55.436Z,12.40
2023-02-17T18:25:24.724Z,13.43
2023-02-17T18:27:52.708Z,13.40
2023-02-17T18:30:23.414Z,13.43
2023-02-17T18:32:52.378Z,12.30
2023-02-17T18:35:22.453Z,13.80
2023-02-17T18:37:50.462Z,14.47
2023-02-17T18:40:22.959Z,13.30
2023-02-17T18:42:51.120Z,14.23
2023-02-17T18:45:19.946Z,14.53
2023-02-17T18:47:48.296Z,14.10
2023-02-17T18:50:16.847Z,15.67
2023-02-17T18:52:46.229Z,13.93
2023-02-17T18:55:14.972Z,13.77
2023-02-17T18:57:44.898Z,14.20
2023-02-17T19:00:15.267Z,12.73
2023-02-17T19:02:43.698Z,12.60
2023-02-17T19:05:13.622Z,13.37
2023-02-17T19:07:41.855Z,13.63
2023-02-17T19:10:12.187Z,14.37
2023-02-17T19:12:40.287Z,13.40
2023-02-17T19:15:09.003Z,12.43
2023-02-17T19:17:37.379Z,12.33
2023-02-17T19:20:05.680Z,13.20
2023-02-17T19:22:36.953Z,14.27
2023-02-17T19:25:05.680Z,14.67
2023-02-17T19:27:35.454Z,14.90
2023-02-17T19:30:03.959Z,14.10
2023-02-17T19:32:32.546Z,14.57
2023-02-17T19:35:00.506Z,15.20
2023-02-17T19:37:28.486Z,15.07
2023-02-17T19:39:56.780Z,14.70
2023-02-17T19:42:25.115Z,14.30
2023-02-17T19:44:54.730Z,14.83
2023-02-17T19:47:22.724Z,14.67
2023-02-17T19:49:51.051Z,14.73
2023-02-17T19:52:20.333Z,15.53
2023-02-17T19:54:50.101Z,15.97
2023-02-17T19:57:18.562Z,14.50
2023-02-17T19:59:46.658Z,13.93
2023-02-17T20:02:16.758Z,13.67
2023-02-17T20:04:45.515Z,14.40
2023-02-17T20:07:13.464Z,14.47
2023-02-17T20:09:41.443Z,13.83
2023-02-17T20:12:09.434Z,13.63
2023-02-17T20:14:38.478Z,13.97
2023-02-17T20:17:06.490Z,14.97
2023-02-17T20:19:38.093Z,14.73
2023-02-17T20:22:06.538Z,14.60
2023-02-17T20:24:34.889Z,14.07
2023-02-17T20:27:03.101Z,13.73
2023-02-17T20:29:31.182Z,13.40
2023-02-17T20:31:59.234Z,13.63
2023-02-17T20:34:30.559Z,13.40
2023-02-17T20:37:00.669Z,13.07
2023-02-17T20:39:28.918Z,12.20
2023-02-17T20:41:57.585Z,12.97
2023-02-17T20:44:27.952Z,13.87
2023-02-17T20:46:56.778Z,13.23
2023-02-17T20:49:25.251Z,13.47
2023-02-17T20:51:54.147Z,13.80
2023-02-17T20:54:25.473Z,12.60
2023-02-17T20:56:53.865Z,13.13
2023-02-17T20:59:22.264Z,12.33
2023-02-17T21:01:50.663Z,13.83
2023-02-17T21:04:18.907Z,11.67
2023-02-17T21:06:48.085Z,12.13
2023-02-17T21:09:18.996Z,11.70
2023-02-17T21:11:48.940Z,11.27
2023-02-17T21:14:16.967Z,12.07
2023-02-17T21:16:45.234Z,11.33
2023-02-17T21:19:13.433Z,12.17
2023-02-17T21:21:41.821Z,11.20
2023-02-17T21:24:10.414Z,11.37
2023-02-17T21:26:38.418Z,11.70
2023-02-17T21:29:07.961Z,11.97
2023-02-17T21:31:37.112Z,11.87
2023-02-17T21:34:05.851Z,10.40
2023-02-17T21:36:34.060Z,10.20
2023-02-17T21:39:03.789Z,9.40
2023-02-17T21:41:32.610Z,10.17
2023-02-17T21:44:18.612Z,10.33
2023-02-17T21:46:48.024Z,9.47
2023-02-17T21:49:16.035Z,9.37
2023-02-17T21:51:44.057Z,8.97
2023-02-17T21:54:12.091Z,9.50
2023-02-17T21:56:40.334Z,9.73
2023-02-17T21:59:08.812Z,9.80
2023-02-17T22:01:37.432Z,9.83
2023-02-17T22:04:07.499Z,10.97
2023-02-17T22:06:38.368Z,10.60
2023-02-17T22:09:07.743Z,11.60
2023-02-17T22:11:37.590Z,10.93
2023-02-17T22:14:10.072Z,9.77
2023-02-17T22:16:39.080Z,9.50
2023-02-17T22:19:10.639Z,10.63
2023-02-17T22:21:40.016Z,9.90
2023-02-17T22:24:08.766Z,9.93
2023-02-17T22:26:36.873Z,9.67
2023-02-17T22:29:05.388Z,9.73
2023-02-17T22:31:34.484Z,9.57
2023-02-17T22:34:06.264Z,10.17
2023-02-17T22:36:37.133Z,9.50
2023-02-17T22:39:07.452Z,8.97
2023-02-17T22:41:36.303Z,9.60
2023-02-17T22:44:05.128Z,9.43
2023-02-17T22:46:33.426Z,8.53
2023-02-17T22:49:01.998Z,9.23
2023-02-17T22:51:32.569Z,8.73
2023-02-17T22:54:02.872Z,8.50
2023-02-17T22:56:31.328Z,9.47
2023-02-17T22:59:01.489Z,9.90
2023-02-17T23:01:31.719Z,9.93
2023-02-17T23:03:59.732Z,10.10
2023-02-17T23:06:30.623Z,10.53
2023-02-17T23:08:59.139Z,11.83
2023-02-17T23:11:49.186Z,11.43
2023-02-17T23:14:19.547Z,11.87
2023-02-17T23:16:47.803Z,11.20
2023-02-17T23:19:18.659Z,11.07
2023-02-17T23:21:48.505Z,12.60
2023-02-17T23:24:17.496Z,11.87
2023-02-17T23:26:47.528Z,12.53
2023-02-17T23:29:16.306Z,12.60
2023-02-17T23:31:44.413Z,11.37
2023-02-17T23:34:13.786Z,11.57
2023-02-17T23:36:42.728Z,11.47
2023-02-17T23:39:11.327Z,11.37
2023-02-17T23:41:40.330Z,9.90
2023-02-17T23:44:11.821Z,9.83
2023-02-17T23:46:41.034Z,8.90
2023-02-17T23:49:09.025Z,8.43
2023-02-17T23:51:37.009Z,8.93
2023-02-17T23:54:04.998Z,10.30
2023-02-17T23:56:34.808Z,10.53
2023-02-17T23:59:03.274Z,9.47
